ウィーン の空港の天気 - METARとTAF

ウィーン国際空港 ( LOWW / VIE ) - オーストリア ウィーン
飛行場実況気象(Metar)
観測時間03/28 23:20 CEST (03/28 21:20 UTC)
風向・風速西南西 3m/s
視程10km以上
天気現象
なし
気温14℃
湿度41%
気圧1022hPa
METARLOWW 282120Z 25005KT CAVOK 14/01 Q1022 NOSIG
過去の天気等 Google飛行場航空写真 Wunderground天気予報

過去48時間のMETAR

飛行場予報(TAF)
発表時間: 3/28 19:15 CEST (3/28 17:15 UTC)
予報対象時間: 28日20時 CEST ~ 30日2時 CEST
風向・風速南西 2m/s
視程10km以上
なし
29日0時 CEST ~ 29日3時 CEST に徐々に
風向・風速西北西 4m/s
29日11時 CEST ~ 29日18時 CEST に 確率 40% で一時的に
風向・風速北西 8m/s 瞬間風速 13m/s
視程10km以上
少しの雲 雲底高度 1,520m
全天の4割程度の雲 雲底高度 3,050m
TAF LOWW 281715Z 2818/2924 22003KT CAVOK TX20/2913Z TN09/2822Z
BECMG 2822/2901 29008KT
PROB40 TEMPO 2909/2916 32015G25KT 9999 FEW050 SCT100